Phoenix, Arizona
Traffic Map
Current Weather Conditions
Phoenix, Arizona
Scattered Clouds
Scattered Clouds
23°
Feels Like: 23°
Wind Chill: 23° Ceiling: Unl
Heat Index: 23° Visibility: 10mi
Dew Point: Wind: 6mph
Humidity: 29% Direction: 90° (E)
Pressure: 29.86in Gusts: 0mph
Raw Report DataKPHX 291151Z 09005KT 10SM SCT250 23/04 A2986 RMK AO2 SLP093 T02330044 10306 20233 53006
Traffic Incident Summary
Active as of:
Severity:
Category:
InformationThere was an issue retrieving the traffic information for this location. Please try a different location or try again shortly.
Advertisements
Track Severe Weather on mobile